Humidity-temperature Sensor

Selected Measurement Type: Air Temperature

 
Air Temperature [°C]     6 entries per hour
Showing data from 6/13/2024 (04:00:00 Z) to 6/12/2024 (00:01:00 Z)
Previous Next [ Day | 3-Days | 7-Days ]
First Last
Prev [ Day | 3-Days | 7-Days ] Next
First Last

Start Time:     :
End Time:     :     
Time (in GMT) :00 :50 :40 :30 :20 :10
Previous Next [ Day | 3-Days | 7-Days ]
First Last
Prev [ Day | 3-Days | 7-Days ] Next
First Last


123 => good data
MM => data is determined as missing
-- => data not received/configured
Back to Top Back to Top
6/13/2024 04:00 to 3:10 25.47 25.43 25.43 25.43 25.36 25.39
6/13/2024 03:00 to 2:10 25.42 25.47 25.54 25.57 25.58 25.58
6/13/2024 02:00 to 1:10 25.54 25.55 25.57 25.52 25.42 25.42
6/13/2024 01:00 to 0:10 25.57 25.33 25.34 25.14 24.98 24.95
6/13/2024 00:00 to 23:10 24.70 24.80 24.90 24.98 25.34 25.40
6/12/2024 23:00 to 22:10 25.26 25.09 24.84 24.76 24.82 24.63
6/12/2024 22:00 to 21:10 24.68 25.19 25.43 25.18 25.24 25.61
6/12/2024 21:00 to 20:10 25.60 25.73 25.69 25.62 25.77 25.64
6/12/2024 20:00 to 19:10 25.63 25.84 25.66 25.73 25.72 25.59
6/12/2024 19:00 to 18:10 25.67 25.63 25.62 25.54 25.60 25.60
6/12/2024 18:00 to 17:10 25.50 25.48 25.51 25.48 25.53 25.52
6/12/2024 17:00 to 16:10 25.53 25.46 25.44 25.47 25.56 25.50
6/12/2024 16:00 to 15:10 25.38 25.61 25.43 25.54 25.40 25.37
6/12/2024 15:00 to 14:10 25.34 25.35 25.31 25.32 25.34 25.27
6/12/2024 14:00 to 13:10 25.24 25.22 25.24 25.09 25.25 25.16
6/12/2024 13:00 to 12:10 25.04 25.08 25.02 25.00 24.99 25.02
6/12/2024 12:00 to 11:10 24.97 25.03 25.05 25.12 25.16 25.05
6/12/2024 11:00 to 10:10 25.07 25.06 25.05 25.08 25.06 24.98
6/12/2024 10:00 to 9:10 25.03 25.10 24.98 24.95 24.96 25.00
6/12/2024 09:00 to 8:10 25.09 25.17 24.99 25.14 25.10 25.08
6/12/2024 08:00 to 7:10 25.01 24.99 24.99 25.08 25.02 25.05
6/12/2024 07:00 to 6:10 25.30 25.17 25.14 25.23 25.22 25.16
6/12/2024 06:00 to 5:10 25.33 25.34 25.29 25.39 25.21 25.26
6/12/2024 05:00 to 4:10 25.25 25.37 25.29 25.25 25.40 25.33
6/12/2024 04:00 to 3:10 25.24 25.35 25.34 25.32 25.31 25.32
6/12/2024 03:00 to 2:10 25.25 25.27 25.32 25.26 25.22 25.18
6/12/2024 02:00 to 1:10 25.29 25.28 25.28 25.34 25.49 25.33
6/12/2024 01:00 to 0:10 25.68 25.47 25.55 25.49 25.50 25.58